sensor_id;sensor_type;location;lat;lon;timestamp;temperature;humidity
54429;DHT22;40337;52.978;6.310;2023-05-19T00:01:58;8.90;99.90
54429;DHT22;40337;52.978;6.310;2023-05-19T00:04:25;8.90;99.90
54429;DHT22;40337;52.978;6.310;2023-05-19T00:06:52;8.90;99.90
54429;DHT22;40337;52.978;6.310;2023-05-19T00:09:19;8.90;99.90
54429;DHT22;40337;52.978;6.310;2023-05-19T00:11:45;8.90;99.90
54429;DHT22;40337;52.978;6.310;2023-05-19T00:14:10;8.90;99.90
54429;DHT22;40337;52.978;6.310;2023-05-19T00:16:37;8.90;99.90
54429;DHT22;40337;52.978;6.310;2023-05-19T00:19:06;8.90;99.90
54429;DHT22;40337;52.978;6.310;2023-05-19T00:21:35;8.90;99.90
54429;DHT22;40337;52.978;6.310;2023-05-19T00:24:02;8.80;99.90
54429;DHT22;40337;52.978;6.310;2023-05-19T00:26:28;8.80;99.90
54429;DHT22;40337;52.978;6.310;2023-05-19T00:28:54;8.80;99.90
54429;DHT22;40337;52.978;6.310;2023-05-19T00:31:19;8.80;99.90
54429;DHT22;40337;52.978;6.310;2023-05-19T00:33:45;8.70;99.90
54429;DHT22;40337;52.978;6.310;2023-05-19T00:36:11;8.80;99.90
54429;DHT22;40337;52.978;6.310;2023-05-19T00:38:36;8.80;99.90
54429;DHT22;40337;52.978;6.310;2023-05-19T00:41:03;8.70;99.90
54429;DHT22;40337;52.978;6.310;2023-05-19T00:43:29;8.70;99.90
54429;DHT22;40337;52.978;6.310;2023-05-19T00:45:55;8.70;99.90
54429;DHT22;40337;52.978;6.310;2023-05-19T00:48:24;8.70;99.90
54429;DHT22;40337;52.978;6.310;2023-05-19T00:50:50;8.70;99.90
54429;DHT22;40337;52.978;6.310;2023-05-19T00:53:17;8.60;99.90
54429;DHT22;40337;52.978;6.310;2023-05-19T00:55:44;8.60;99.90
54429;DHT22;40337;52.978;6.310;2023-05-19T00:58:11;8.60;99.90
54429;DHT22;40337;52.978;6.310;2023-05-19T01:00:38;8.60;99.90
54429;DHT22;40337;52.978;6.310;2023-05-19T01:03:05;8.60;99.90
54429;DHT22;40337;52.978;6.310;2023-05-19T01:05:37;8.60;99.90
54429;DHT22;40337;52.978;6.310;2023-05-19T01:08:04;8.60;99.90
54429;DHT22;40337;52.978;6.310;2023-05-19T01:10:30;8.60;99.90
54429;DHT22;40337;52.978;6.310;2023-05-19T01:12:55;8.60;99.90
54429;DHT22;40337;52.978;6.310;2023-05-19T01:15:21;8.50;99.90
54429;DHT22;40337;52.978;6.310;2023-05-19T01:17:55;8.50;99.90
54429;DHT22;40337;52.978;6.310;2023-05-19T01:20:47;8.50;99.90
54429;DHT22;40337;52.978;6.310;2023-05-19T01:23:47;8.50;99.90
54429;DHT22;40337;52.978;6.310;2023-05-19T01:29:16;8.50;99.90
54429;DHT22;40337;52.978;6.310;2023-05-19T01:31:51;8.50;99.90
54429;DHT22;40337;52.978;6.310;2023-05-19T01:34:18;8.40;99.90
54429;DHT22;40337;52.978;6.310;2023-05-19T01:36:46;8.40;99.90
54429;DHT22;40337;52.978;6.310;2023-05-19T01:39:14;8.40;99.90
54429;DHT22;40337;52.978;6.310;2023-05-19T01:41:41;8.40;99.90
54429;DHT22;40337;52.978;6.310;2023-05-19T01:44:08;8.40;99.90
54429;DHT22;40337;52.978;6.310;2023-05-19T01:46:35;8.40;99.90
54429;DHT22;40337;52.978;6.310;2023-05-19T01:49:01;8.40;99.90
54429;DHT22;40337;52.978;6.310;2023-05-19T01:51:27;8.30;99.90
54429;DHT22;40337;52.978;6.310;2023-05-19T01:53:53;8.30;99.90
54429;DHT22;40337;52.978;6.310;2023-05-19T01:56:28;8.30;99.90
54429;DHT22;40337;52.978;6.310;2023-05-19T01:59:04;8.30;99.90
54429;DHT22;40337;52.978;6.310;2023-05-19T02:01:51;8.20;99.90
54429;DHT22;40337;52.978;6.310;2023-05-19T02:04:50;8.20;99.90
54429;DHT22;40337;52.978;6.310;2023-05-19T02:07:43;8.20;99.90
54429;DHT22;40337;52.978;6.310;2023-05-19T02:10:09;8.20;99.90
54429;DHT22;40337;52.978;6.310;2023-05-19T02:12:37;8.10;99.90
54429;DHT22;40337;52.978;6.310;2023-05-19T02:15:15;8.10;99.90
54429;DHT22;40337;52.978;6.310;2023-05-19T02:17:42;8.10;99.90
54429;DHT22;40337;52.978;6.310;2023-05-19T02:20:16;8.10;99.90
54429;DHT22;40337;52.978;6.310;2023-05-19T02:22:43;8.10;99.90
54429;DHT22;40337;52.978;6.310;2023-05-19T02:25:09;8.10;99.90
54429;DHT22;40337;52.978;6.310;2023-05-19T02:27:36;8.10;99.90
54429;DHT22;40337;52.978;6.310;2023-05-19T02:30:03;8.10;99.90
54429;DHT22;40337;52.978;6.310;2023-05-19T02:32:28;8.10;99.90
54429;DHT22;40337;52.978;6.310;2023-05-19T02:34:54;8.10;99.90
54429;DHT22;40337;52.978;6.310;2023-05-19T02:37:21;8.10;99.90
54429;DHT22;40337;52.978;6.310;2023-05-19T02:39:48;8.10;99.90
54429;DHT22;40337;52.978;6.310;2023-05-19T02:42:13;8.10;99.90
54429;DHT22;40337;52.978;6.310;2023-05-19T02:44:42;8.10;99.90
54429;DHT22;40337;52.978;6.310;2023-05-19T02:47:07;8.10;99.90
54429;DHT22;40337;52.978;6.310;2023-05-19T02:49:33;8.00;99.90
54429;DHT22;40337;52.978;6.310;2023-05-19T02:52:04;8.00;99.90
54429;DHT22;40337;52.978;6.310;2023-05-19T02:54:31;8.00;99.90
54429;DHT22;40337;52.978;6.310;2023-05-19T02:56:57;8.00;99.90
54429;DHT22;40337;52.978;6.310;2023-05-19T02:59:23;8.00;99.90
54429;DHT22;40337;52.978;6.310;2023-05-19T03:01:49;8.10;99.90
54429;DHT22;40337;52.978;6.310;2023-05-19T03:04:15;8.00;99.90
54429;DHT22;40337;52.978;6.310;2023-05-19T03:06:40;8.00;99.90
54429;DHT22;40337;52.978;6.310;2023-05-19T03:09:07;7.90;99.90
54429;DHT22;40337;52.978;6.310;2023-05-19T03:11:32;8.00;99.90
54429;DHT22;40337;52.978;6.310;2023-05-19T03:13:58;7.90;99.90
54429;DHT22;40337;52.978;6.310;2023-05-19T03:16:23;8.00;99.90
54429;DHT22;40337;52.978;6.310;2023-05-19T03:18:49;8.00;99.90
54429;DHT22;40337;52.978;6.310;2023-05-19T03:21:15;8.00;99.90
54429;DHT22;40337;52.978;6.310;2023-05-19T03:23:41;8.00;99.90
54429;DHT22;40337;52.978;6.310;2023-05-19T03:26:06;8.00;99.90
54429;DHT22;40337;52.978;6.310;2023-05-19T03:28:32;7.90;99.90
54429;DHT22;40337;52.978;6.310;2023-05-19T03:30:57;7.90;99.90
54429;DHT22;40337;52.978;6.310;2023-05-19T03:33:23;7.90;99.90
54429;DHT22;40337;52.978;6.310;2023-05-19T03:35:49;7.90;99.90
54429;DHT22;40337;52.978;6.310;2023-05-19T03:38:14;7.90;99.90
54429;DHT22;40337;52.978;6.310;2023-05-19T03:40:40;7.90;99.90
54429;DHT22;40337;52.978;6.310;2023-05-19T03:43:06;7.90;99.90
54429;DHT22;40337;52.978;6.310;2023-05-19T03:45:32;7.90;99.90
54429;DHT22;40337;52.978;6.310;2023-05-19T03:47:57;7.90;99.90
54429;DHT22;40337;52.978;6.310;2023-05-19T03:50:23;7.90;99.90
54429;DHT22;40337;52.978;6.310;2023-05-19T03:52:49;7.90;99.90
54429;DHT22;40337;52.978;6.310;2023-05-19T03:55:14;7.90;99.90
54429;DHT22;40337;52.978;6.310;2023-05-19T03:57:40;7.80;99.90
54429;DHT22;40337;52.978;6.310;2023-05-19T04:00:08;7.80;99.90
54429;DHT22;40337;52.978;6.310;2023-05-19T04:02:35;7.80;99.90
54429;DHT22;40337;52.978;6.310;2023-05-19T04:05:01;7.80;99.90
54429;DHT22;40337;52.978;6.310;2023-05-19T04:07:29;7.80;99.90
54429;DHT22;40337;52.978;6.310;2023-05-19T04:09:55;7.80;99.90
54429;DHT22;40337;52.978;6.310;2023-05-19T04:12:21;7.80;99.90
54429;DHT22;40337;52.978;6.310;2023-05-19T04:14:47;7.90;99.90
54429;DHT22;40337;52.978;6.310;2023-05-19T04:17:12;7.90;99.90
54429;DHT22;40337;52.978;6.310;2023-05-19T04:19:38;7.90;99.90
54429;DHT22;40337;52.978;6.310;2023-05-19T04:22:04;7.90;99.90
54429;DHT22;40337;52.978;6.310;2023-05-19T04:24:30;7.90;99.90
54429;DHT22;40337;52.978;6.310;2023-05-19T04:26:56;7.90;99.90
54429;DHT22;40337;52.978;6.310;2023-05-19T04:29:27;8.00;99.90
54429;DHT22;40337;52.978;6.310;2023-05-19T04:31:54;8.10;99.90
54429;DHT22;40337;52.978;6.310;2023-05-19T04:34:19;8.10;99.90
54429;DHT22;40337;52.978;6.310;2023-05-19T04:36:45;8.10;99.90
54429;DHT22;40337;52.978;6.310;2023-05-19T04:39:10;8.10;99.90
54429;DHT22;40337;52.978;6.310;2023-05-19T04:41:36;8.10;99.90
54429;DHT22;40337;52.978;6.310;2023-05-19T04:44:07;8.10;99.90
54429;DHT22;40337;52.978;6.310;2023-05-19T04:46:33;8.10;99.90
54429;DHT22;40337;52.978;6.310;2023-05-19T04:48:59;8.20;99.90
54429;DHT22;40337;52.978;6.310;2023-05-19T04:51:26;8.20;99.90
54429;DHT22;40337;52.978;6.310;2023-05-19T04:53:54;8.20;99.90
54429;DHT22;40337;52.978;6.310;2023-05-19T04:56:19;8.20;99.90
54429;DHT22;40337;52.978;6.310;2023-05-19T04:58:45;8.20;99.90
54429;DHT22;40337;52.978;6.310;2023-05-19T05:01:10;8.20;99.90
54429;DHT22;40337;52.978;6.310;2023-05-19T05:03:38;8.30;99.90
54429;DHT22;40337;52.978;6.310;2023-05-19T05:06:04;8.30;99.90
54429;DHT22;40337;52.978;6.310;2023-05-19T05:08:30;8.40;99.90
54429;DHT22;40337;52.978;6.310;2023-05-19T05:10:56;8.40;99.90
54429;DHT22;40337;52.978;6.310;2023-05-19T05:13:23;8.50;99.90
54429;DHT22;40337;52.978;6.310;2023-05-19T05:15:49;8.50;99.90
54429;DHT22;40337;52.978;6.310;2023-05-19T05:18:16;8.50;99.90
54429;DHT22;40337;52.978;6.310;2023-05-19T05:20:42;8.60;99.90
54429;DHT22;40337;52.978;6.310;2023-05-19T05:23:09;8.60;99.90
54429;DHT22;40337;52.978;6.310;2023-05-19T05:25:39;8.70;99.90
54429;DHT22;40337;52.978;6.310;2023-05-19T05:28:05;8.70;99.90
54429;DHT22;40337;52.978;6.310;2023-05-19T05:30:32;8.80;99.90
54429;DHT22;40337;52.978;6.310;2023-05-19T05:32:57;8.90;99.90
54429;DHT22;40337;52.978;6.310;2023-05-19T05:35:23;9.00;99.90
54429;DHT22;40337;52.978;6.310;2023-05-19T05:37:49;9.00;99.90
54429;DHT22;40337;52.978;6.310;2023-05-19T05:40:14;9.10;99.90
54429;DHT22;40337;52.978;6.310;2023-05-19T05:42:40;9.20;99.90
54429;DHT22;40337;52.978;6.310;2023-05-19T05:45:06;9.20;99.90
54429;DHT22;40337;52.978;6.310;2023-05-19T05:47:32;9.30;99.90
54429;DHT22;40337;52.978;6.310;2023-05-19T05:49:58;9.40;99.90
54429;DHT22;40337;52.978;6.310;2023-05-19T05:52:29;9.40;99.90
54429;DHT22;40337;52.978;6.310;2023-05-19T05:54:55;9.50;99.90
54429;DHT22;40337;52.978;6.310;2023-05-19T05:57:21;9.60;99.90
54429;DHT22;40337;52.978;6.310;2023-05-19T05:59:47;9.70;99.90
54429;DHT22;40337;52.978;6.310;2023-05-19T06:02:13;9.70;99.90
54429;DHT22;40337;52.978;6.310;2023-05-19T06:04:38;9.80;99.90
54429;DHT22;40337;52.978;6.310;2023-05-19T06:07:05;9.90;99.90
54429;DHT22;40337;52.978;6.310;2023-05-19T06:09:30;10.00;99.90
54429;DHT22;40337;52.978;6.310;2023-05-19T06:11:57;10.40;99.90
54429;DHT22;40337;52.978;6.310;2023-05-19T06:14:24;11.00;99.90
54429;DHT22;40337;52.978;6.310;2023-05-19T06:16:49;11.80;99.90
54429;DHT22;40337;52.978;6.310;2023-05-19T06:19:15;12.60;99.90
54429;DHT22;40337;52.978;6.310;2023-05-19T06:21:41;13.20;99.90
54429;DHT22;40337;52.978;6.310;2023-05-19T06:24:07;13.80;99.90
54429;DHT22;40337;52.978;6.310;2023-05-19T06:26:33;14.20;99.90
54429;DHT22;40337;52.978;6.310;2023-05-19T06:28:58;14.60;99.90
54429;DHT22;40337;52.978;6.310;2023-05-19T06:31:24;15.00;99.90
54429;DHT22;40337;52.978;6.310;2023-05-19T06:33:51;15.30;99.90
54429;DHT22;40337;52.978;6.310;2023-05-19T06:36:18;15.70;99.90
54429;DHT22;40337;52.978;6.310;2023-05-19T06:38:43;16.00;99.90
54429;DHT22;40337;52.978;6.310;2023-05-19T06:41:09;16.10;99.90
54429;DHT22;40337;52.978;6.310;2023-05-19T06:43:34;16.30;99.90
54429;DHT22;40337;52.978;6.310;2023-05-19T06:46:00;16.60;99.90
54429;DHT22;40337;52.978;6.310;2023-05-19T06:48:25;16.80;99.90
54429;DHT22;40337;52.978;6.310;2023-05-19T06:50:51;16.90;99.90
54429;DHT22;40337;52.978;6.310;2023-05-19T06:53:18;17.30;99.90
54429;DHT22;40337;52.978;6.310;2023-05-19T06:55:44;17.60;99.90
54429;DHT22;40337;52.978;6.310;2023-05-19T06:58:09;17.60;99.90
54429;DHT22;40337;52.978;6.310;2023-05-19T07:00:35;17.70;99.90
54429;DHT22;40337;52.978;6.310;2023-05-19T07:03:01;17.70;99.90
54429;DHT22;40337;52.978;6.310;2023-05-19T07:05:27;17.90;99.90
54429;DHT22;40337;52.978;6.310;2023-05-19T07:07:52;18.10;99.90
54429;DHT22;40337;52.978;6.310;2023-05-19T07:10:18;18.20;99.90
54429;DHT22;40337;52.978;6.310;2023-05-19T07:12:45;18.20;99.90
54429;DHT22;40337;52.978;6.310;2023-05-19T07:15:11;18.50;99.90
54429;DHT22;40337;52.978;6.310;2023-05-19T07:17:36;18.50;98.70
54429;DHT22;40337;52.978;6.310;2023-05-19T07:20:02;18.50;98.00
54429;DHT22;40337;52.978;6.310;2023-05-19T07:22:31;18.60;97.60
54429;DHT22;40337;52.978;6.310;2023-05-19T07:24:59;18.50;96.80
54429;DHT22;40337;52.978;6.310;2023-05-19T07:27:25;18.40;97.70
54429;DHT22;40337;52.978;6.310;2023-05-19T07:29:51;18.30;97.40
54429;DHT22;40337;52.978;6.310;2023-05-19T07:32:16;18.40;96.20
54429;DHT22;40337;52.978;6.310;2023-05-19T07:34:42;18.20;96.10
54429;DHT22;40337;52.978;6.310;2023-05-19T07:37:07;18.20;95.80
54429;DHT22;40337;52.978;6.310;2023-05-19T07:39:34;18.00;96.30
54429;DHT22;40337;52.978;6.310;2023-05-19T07:42:00;18.00;95.80
54429;DHT22;40337;52.978;6.310;2023-05-19T07:44:26;18.20;96.60
54429;DHT22;40337;52.978;6.310;2023-05-19T07:46:53;18.20;95.50
54429;DHT22;40337;52.978;6.310;2023-05-19T07:49:19;18.40;95.30
54429;DHT22;40337;52.978;6.310;2023-05-19T07:51:44;18.40;94.80
54429;DHT22;40337;52.978;6.310;2023-05-19T07:54:10;18.60;95.60
54429;DHT22;40337;52.978;6.310;2023-05-19T07:56:36;18.70;95.80
54429;DHT22;40337;52.978;6.310;2023-05-19T07:59:02;18.70;96.10
54429;DHT22;40337;52.978;6.310;2023-05-19T08:01:29;18.70;95.30
54429;DHT22;40337;52.978;6.310;2023-05-19T08:03:55;18.80;95.30
54429;DHT22;40337;52.978;6.310;2023-05-19T08:06:21;18.90;94.70
54429;DHT22;40337;52.978;6.310;2023-05-19T08:08:46;18.90;95.10
54429;DHT22;40337;52.978;6.310;2023-05-19T08:11:12;18.90;94.50
54429;DHT22;40337;52.978;6.310;2023-05-19T08:13:38;18.90;95.50
54429;DHT22;40337;52.978;6.310;2023-05-19T08:16:04;18.90;95.90
54429;DHT22;40337;52.978;6.310;2023-05-19T08:18:29;18.80;95.40
54429;DHT22;40337;52.978;6.310;2023-05-19T08:20:55;18.80;95.40
54429;DHT22;40337;52.978;6.310;2023-05-19T08:23:21;18.80;95.30
54429;DHT22;40337;52.978;6.310;2023-05-19T08:25:46;18.90;94.40
54429;DHT22;40337;52.978;6.310;2023-05-19T08:28:12;19.00;94.10
54429;DHT22;40337;52.978;6.310;2023-05-19T08:30:38;19.30;94.20
54429;DHT22;40337;52.978;6.310;2023-05-19T08:33:03;19.60;94.90
54429;DHT22;40337;52.978;6.310;2023-05-19T08:35:29;19.80;94.30
54429;DHT22;40337;52.978;6.310;2023-05-19T08:37:55;19.70;93.70
54429;DHT22;40337;52.978;6.310;2023-05-19T08:40:22;19.60;93.20
54429;DHT22;40337;52.978;6.310;2023-05-19T08:42:47;19.40;92.00
54429;DHT22;40337;52.978;6.310;2023-05-19T08:45:14;19.30;92.00
54429;DHT22;40337;52.978;6.310;2023-05-19T08:47:40;19.20;92.80
54429;DHT22;40337;52.978;6.310;2023-05-19T08:50:07;19.40;92.80
54429;DHT22;40337;52.978;6.310;2023-05-19T08:52:51;19.60;91.50
54429;DHT22;40337;52.978;6.310;2023-05-19T08:55:32;19.60;91.60
54429;DHT22;40337;52.978;6.310;2023-05-19T08:58:03;19.70;91.80
54429;DHT22;40337;52.978;6.310;2023-05-19T09:00:29;19.60;91.90
54429;DHT22;40337;52.978;6.310;2023-05-19T09:02:55;19.60;92.20
54429;DHT22;40337;52.978;6.310;2023-05-19T09:05:22;19.60;91.10
54429;DHT22;40337;52.978;6.310;2023-05-19T09:07:47;19.80;91.40
54429;DHT22;40337;52.978;6.310;2023-05-19T09:10:13;20.10;90.90
54429;DHT22;40337;52.978;6.310;2023-05-19T09:12:44;20.10;90.50
54429;DHT22;40337;52.978;6.310;2023-05-19T09:15:11;20.40;90.00
54429;DHT22;40337;52.978;6.310;2023-05-19T09:17:38;20.60;87.10
54429;DHT22;40337;52.978;6.310;2023-05-19T09:20:05;21.00;89.10
54429;DHT22;40337;52.978;6.310;2023-05-19T09:22:42;21.20;88.10
54429;DHT22;40337;52.978;6.310;2023-05-19T09:25:50;21.30;86.20
54429;DHT22;40337;52.978;6.310;2023-05-19T09:28:36;21.30;81.90
54429;DHT22;40337;52.978;6.310;2023-05-19T09:31:03;21.30;82.30
54429;DHT22;40337;52.978;6.310;2023-05-19T09:33:32;21.30;81.40
54429;DHT22;40337;52.978;6.310;2023-05-19T09:35:58;21.30;79.90
54429;DHT22;40337;52.978;6.310;2023-05-19T09:38:27;21.40;80.00
54429;DHT22;40337;52.978;6.310;2023-05-19T09:40:55;21.40;77.20
54429;DHT22;40337;52.978;6.310;2023-05-19T09:43:29;21.50;77.00
54429;DHT22;40337;52.978;6.310;2023-05-19T09:46:03;21.70;75.40
54429;DHT22;40337;52.978;6.310;2023-05-19T09:48:28;21.70;70.20
54429;DHT22;40337;52.978;6.310;2023-05-19T09:50:55;21.60;73.90
54429;DHT22;40337;52.978;6.310;2023-05-19T09:53:24;21.50;73.60
54429;DHT22;40337;52.978;6.310;2023-05-19T09:55:54;21.50;74.20
54429;DHT22;40337;52.978;6.310;2023-05-19T09:58:22;21.50;72.40
54429;DHT22;40337;52.978;6.310;2023-05-19T10:00:49;21.80;73.80
54429;DHT22;40337;52.978;6.310;2023-05-19T10:03:15;22.00;75.10
54429;DHT22;40337;52.978;6.310;2023-05-19T10:05:42;22.10;74.80
54429;DHT22;40337;52.978;6.310;2023-05-19T10:08:09;22.20;73.40
54429;DHT22;40337;52.978;6.310;2023-05-19T10:10:37;22.30;71.60
54429;DHT22;40337;52.978;6.310;2023-05-19T10:13:03;22.30;71.20
54429;DHT22;40337;52.978;6.310;2023-05-19T10:15:29;22.50;68.40
54429;DHT22;40337;52.978;6.310;2023-05-19T10:17:55;22.70;70.10
54429;DHT22;40337;52.978;6.310;2023-05-19T10:20:21;22.80;69.70
54429;DHT22;40337;52.978;6.310;2023-05-19T10:22:47;22.80;68.30
54429;DHT22;40337;52.978;6.310;2023-05-19T10:25:13;23.00;69.10
54429;DHT22;40337;52.978;6.310;2023-05-19T10:27:51;22.80;65.50
54429;DHT22;40337;52.978;6.310;2023-05-19T10:30:37;22.90;64.50
54429;DHT22;40337;52.978;6.310;2023-05-19T10:33:03;22.80;65.20
54429;DHT22;40337;52.978;6.310;2023-05-19T10:38:20;23.10;62.30
54429;DHT22;40337;52.978;6.310;2023-05-19T10:46:03;23.20;57.40
54429;DHT22;40337;52.978;6.310;2023-05-19T10:48:32;23.30;59.10
54429;DHT22;40337;52.978;6.310;2023-05-19T10:50:59;23.40;60.30
54429;DHT22;40337;52.978;6.310;2023-05-19T10:53:30;23.50;60.00
54429;DHT22;40337;52.978;6.310;2023-05-19T10:55:56;23.70;59.90
54429;DHT22;40337;52.978;6.310;2023-05-19T10:58:39;23.60;59.20
54429;DHT22;40337;52.978;6.310;2023-05-19T11:01:14;23.50;55.70
54429;DHT22;40337;52.978;6.310;2023-05-19T11:06:23;23.30;58.10
54429;DHT22;40337;52.978;6.310;2023-05-19T11:09:13;23.30;55.50
54429;DHT22;40337;52.978;6.310;2023-05-19T11:14:17;23.20;56.70
54429;DHT22;40337;52.978;6.310;2023-05-19T11:16:46;23.00;57.90
54429;DHT22;40337;52.978;6.310;2023-05-19T11:19:18;23.10;58.60
54429;DHT22;40337;52.978;6.310;2023-05-19T11:21:50;23.40;56.60
54429;DHT22;40337;52.978;6.310;2023-05-19T11:24:42;23.20;57.00
54429;DHT22;40337;52.978;6.310;2023-05-19T11:27:32;23.10;58.70
54429;DHT22;40337;52.978;6.310;2023-05-19T11:30:10;23.20;62.40
54429;DHT22;40337;52.978;6.310;2023-05-19T11:32:39;23.00;56.90
54429;DHT22;40337;52.978;6.310;2023-05-19T11:35:08;22.80;56.90
54429;DHT22;40337;52.978;6.310;2023-05-19T11:37:34;22.60;58.30
54429;DHT22;40337;52.978;6.310;2023-05-19T11:40:01;22.60;57.70
54429;DHT22;40337;52.978;6.310;2023-05-19T11:42:26;22.70;59.00
54429;DHT22;40337;52.978;6.310;2023-05-19T11:44:54;22.70;58.20
54429;DHT22;40337;52.978;6.310;2023-05-19T11:47:20;22.70;58.60
54429;DHT22;40337;52.978;6.310;2023-05-19T11:49:50;23.00;58.30
54429;DHT22;40337;52.978;6.310;2023-05-19T11:52:21;23.30;58.20
54429;DHT22;40337;52.978;6.310;2023-05-19T11:54:47;23.20;57.80
54429;DHT22;40337;52.978;6.310;2023-05-19T11:57:13;23.20;56.10
54429;DHT22;40337;52.978;6.310;2023-05-19T11:59:39;23.40;56.20
54429;DHT22;40337;52.978;6.310;2023-05-19T12:04:42;23.70;55.90
54429;DHT22;40337;52.978;6.310;2023-05-19T12:07:10;24.00;57.50
54429;DHT22;40337;52.978;6.310;2023-05-19T12:09:36;24.20;58.50
54429;DHT22;40337;52.978;6.310;2023-05-19T12:12:02;24.10;55.50
54429;DHT22;40337;52.978;6.310;2023-05-19T12:14:29;24.10;55.80
54429;DHT22;40337;52.978;6.310;2023-05-19T12:16:55;24.00;54.40
54429;DHT22;40337;52.978;6.310;2023-05-19T12:19:25;24.10;53.90
54429;DHT22;40337;52.978;6.310;2023-05-19T12:21:51;24.10;52.80
54429;DHT22;40337;52.978;6.310;2023-05-19T12:24:18;23.90;55.40
54429;DHT22;40337;52.978;6.310;2023-05-19T12:26:44;23.80;56.70
54429;DHT22;40337;52.978;6.310;2023-05-19T12:29:12;23.80;57.20
54429;DHT22;40337;52.978;6.310;2023-05-19T12:31:37;23.70;57.30
54429;DHT22;40337;52.978;6.310;2023-05-19T12:34:03;23.50;56.00
54429;DHT22;40337;52.978;6.310;2023-05-19T12:36:30;23.50;58.50
54429;DHT22;40337;52.978;6.310;2023-05-19T12:38:56;23.50;58.60
54429;DHT22;40337;52.978;6.310;2023-05-19T12:41:24;23.50;59.40
54429;DHT22;40337;52.978;6.310;2023-05-19T12:43:49;23.50;58.30
54429;DHT22;40337;52.978;6.310;2023-05-19T12:46:17;23.30;58.90
54429;DHT22;40337;52.978;6.310;2023-05-19T12:48:44;23.10;58.20
54429;DHT22;40337;52.978;6.310;2023-05-19T12:51:14;23.10;58.40
54429;DHT22;40337;52.978;6.310;2023-05-19T12:53:40;22.80;58.90
54429;DHT22;40337;52.978;6.310;2023-05-19T12:56:14;22.80;56.60
54429;DHT22;40337;52.978;6.310;2023-05-19T12:58:43;22.50;56.40
54429;DHT22;40337;52.978;6.310;2023-05-19T13:01:17;22.50;56.90
54429;DHT22;40337;52.978;6.310;2023-05-19T13:03:42;22.30;58.10
54429;DHT22;40337;52.978;6.310;2023-05-19T13:06:08;22.30;58.70
54429;DHT22;40337;52.978;6.310;2023-05-19T13:08:36;22.30;61.90
54429;DHT22;40337;52.978;6.310;2023-05-19T13:11:03;22.40;62.00
54429;DHT22;40337;52.978;6.310;2023-05-19T13:13:28;22.50;60.20
54429;DHT22;40337;52.978;6.310;2023-05-19T13:15:54;22.70;58.90
54429;DHT22;40337;52.978;6.310;2023-05-19T13:18:20;22.80;57.90
54429;DHT22;40337;52.978;6.310;2023-05-19T13:20:46;23.00;58.60
54429;DHT22;40337;52.978;6.310;2023-05-19T13:23:14;23.00;59.00
54429;DHT22;40337;52.978;6.310;2023-05-19T13:25:40;22.90;58.80
54429;DHT22;40337;52.978;6.310;2023-05-19T13:28:06;22.90;58.40
54429;DHT22;40337;52.978;6.310;2023-05-19T13:30:33;23.10;61.50
54429;DHT22;40337;52.978;6.310;2023-05-19T13:32:59;23.00;61.40
54429;DHT22;40337;52.978;6.310;2023-05-19T13:35:25;23.20;63.90
54429;DHT22;40337;52.978;6.310;2023-05-19T13:37:50;23.00;60.30
54429;DHT22;40337;52.978;6.310;2023-05-19T13:40:16;23.00;59.80
54429;DHT22;40337;52.978;6.310;2023-05-19T13:42:42;23.10;61.10
54429;DHT22;40337;52.978;6.310;2023-05-19T13:45:08;23.00;62.70
54429;DHT22;40337;52.978;6.310;2023-05-19T13:47:34;23.20;62.70
54429;DHT22;40337;52.978;6.310;2023-05-19T13:50:01;23.30;63.20
54429;DHT22;40337;52.978;6.310;2023-05-19T13:52:27;23.40;62.80
54429;DHT22;40337;52.978;6.310;2023-05-19T13:54:53;23.30;63.10
54429;DHT22;40337;52.978;6.310;2023-05-19T13:57:21;23.30;63.80
54429;DHT22;40337;52.978;6.310;2023-05-19T13:59:47;23.40;64.40
54429;DHT22;40337;52.978;6.310;2023-05-19T14:02:13;23.30;64.40
54429;DHT22;40337;52.978;6.310;2023-05-19T14:04:39;23.20;64.10
54429;DHT22;40337;52.978;6.310;2023-05-19T14:07:05;23.10;64.40
54429;DHT22;40337;52.978;6.310;2023-05-19T14:09:31;22.90;63.30
54429;DHT22;40337;52.978;6.310;2023-05-19T14:11:57;22.80;62.70
54429;DHT22;40337;52.978;6.310;2023-05-19T14:14:22;22.70;64.20
54429;DHT22;40337;52.978;6.310;2023-05-19T14:16:49;22.30;63.30
54429;DHT22;40337;52.978;6.310;2023-05-19T14:19:14;22.30;63.70
54429;DHT22;40337;52.978;6.310;2023-05-19T14:21:40;22.20;66.30
54429;DHT22;40337;52.978;6.310;2023-05-19T14:24:05;22.10;66.70
54429;DHT22;40337;52.978;6.310;2023-05-19T14:26:31;21.90;67.50
54429;DHT22;40337;52.978;6.310;2023-05-19T14:28:57;22.00;68.50
54429;DHT22;40337;52.978;6.310;2023-05-19T14:31:22;22.10;69.80
54429;DHT22;40337;52.978;6.310;2023-05-19T14:33:48;22.20;67.80
54429;DHT22;40337;52.978;6.310;2023-05-19T14:36:14;22.30;68.10
54429;DHT22;40337;52.978;6.310;2023-05-19T14:38:39;22.30;68.60
54429;DHT22;40337;52.978;6.310;2023-05-19T14:41:05;22.50;69.90
54429;DHT22;40337;52.978;6.310;2023-05-19T14:43:31;22.60;67.70
54429;DHT22;40337;52.978;6.310;2023-05-19T14:45:57;22.20;67.80
54429;DHT22;40337;52.978;6.310;2023-05-19T14:48:23;21.90;68.10
54429;DHT22;40337;52.978;6.310;2023-05-19T14:50:48;21.80;68.80
54429;DHT22;40337;52.978;6.310;2023-05-19T14:53:14;21.70;68.70
54429;DHT22;40337;52.978;6.310;2023-05-19T14:55:41;21.70;70.50
54429;DHT22;40337;52.978;6.310;2023-05-19T14:58:06;21.70;71.50
54429;DHT22;40337;52.978;6.310;2023-05-19T15:00:32;21.90;69.70
54429;DHT22;40337;52.978;6.310;2023-05-19T15:02:57;22.00;69.70
54429;DHT22;40337;52.978;6.310;2023-05-19T15:05:23;22.20;70.70
54429;DHT22;40337;52.978;6.310;2023-05-19T15:07:49;22.20;69.80
54429;DHT22;40337;52.978;6.310;2023-05-19T15:10:15;22.00;69.80
54429;DHT22;40337;52.978;6.310;2023-05-19T15:12:41;21.70;69.50
54429;DHT22;40337;52.978;6.310;2023-05-19T15:15:07;21.70;70.50
54429;DHT22;40337;52.978;6.310;2023-05-19T15:17:33;21.80;70.50
54429;DHT22;40337;52.978;6.310;2023-05-19T15:19:58;21.90;69.30
54429;DHT22;40337;52.978;6.310;2023-05-19T15:22:24;21.80;71.00
54429;DHT22;40337;52.978;6.310;2023-05-19T15:24:50;21.80;71.10
54429;DHT22;40337;52.978;6.310;2023-05-19T15:27:16;21.80;71.30
54429;DHT22;40337;52.978;6.310;2023-05-19T15:29:41;21.90;71.30
54429;DHT22;40337;52.978;6.310;2023-05-19T15:32:07;21.90;70.30
54429;DHT22;40337;52.978;6.310;2023-05-19T15:34:33;21.90;70.70
54429;DHT22;40337;52.978;6.310;2023-05-19T15:36:58;21.90;69.80
54429;DHT22;40337;52.978;6.310;2023-05-19T15:39:24;21.90;70.00
54429;DHT22;40337;52.978;6.310;2023-05-19T15:41:50;22.00;70.90
54429;DHT22;40337;52.978;6.310;2023-05-19T15:44:16;22.00;70.90
54429;DHT22;40337;52.978;6.310;2023-05-19T15:46:41;21.90;71.40
54429;DHT22;40337;52.978;6.310;2023-05-19T15:49:07;21.70;71.90
54429;DHT22;40337;52.978;6.310;2023-05-19T15:51:33;21.40;73.10
54429;DHT22;40337;52.978;6.310;2023-05-19T15:53:58;21.00;74.90
54429;DHT22;40337;52.978;6.310;2023-05-19T15:56:24;20.80;75.00
54429;DHT22;40337;52.978;6.310;2023-05-19T15:58:50;20.70;75.40